SKBG/BGA METAR and TAF weather

Enter ICAO airport designator
Station Type Date Time Source
SKBG METAR 2019/12/14 11:00 UTC NOAA

SKBG 141100Z VRB02KT 9999 FEW010 SCT070 17/17 A2997


Station Type Date Time Source
SKBG Decoded METAR 2019/12/14 11:00 UTC NOAA

Bucaramanga / Palonegro, Colombia (SKBG) 07-06N 073-12W
Dec 14, 2019 - 06:00 AM EST / 2019.12.14 1100 UTC
Wind: Variable at 2 MPH (2 KT):0
Visibility: greater than 7 mile(s):0
Sky conditions: partly cloudy
Temperature: 62 F (17 C)
Dew Point: 62 F (17 C)
Relative Humidity: 100%
Pressure (altimeter): 29.97 in. Hg (1014 hPa)
ob: SKBG 141100Z VRB02KT 9999 FEW010 SCT070 17/17 A2997
cycle: 11

Station Type Date Time Source
SKBG TAF 2019/12/14 12:42 UTC NOAA

TAF TAF SKBG 141030Z 1412/1512 VRB02KT 9999 SCT010
TEMPO 1412/1414 5000 BR BKN005
BECMG 1415/1417 32008KT SCT015
BECMG 1500/1502 VRB03KT
TEMPO 1501/1506 5000 DZ BR BKN006 TX27/1419Z TN18/1511Z

Example: see airport list